Time;durP1;ratioP1;P1;durP2;ratioP2;P2;SDS_P1;SDS_P2;PMS_P1;PMS_P2;Temp;Humidity;BMP_temperature;BMP_pressure;BME280_temperature;BME280_humidity;BME280_pressure;Samples;Min_cycle;Max_cycle;Signal;HPM_P1;HPM_P2
2023/09/04 05:57:48;;;;;;;;;;;;;;;22.86;60.81;97528.75;4231772;27;10358;-64
2023/09/04 05:59:52;;;;;;;;;;;;;;;23.14;60.52;97528.50;4231789;28;5679;-65
2023/09/04 06:01:54;;;;;;;;;;;;;;;23.37;59.71;97531.94;4231658;28;5685;-65
2023/09/04 06:03:57;;;;;;;;;;;;;;;23.55;59.63;97528.81;4231954;28;5660;-65
2023/09/04 06:06:01;;;;;;;;;;;;;;;23.70;59.24;97526.28;4232117;28;5690;-64
2023/09/04 06:08:04;;;;;;;;;;;;;;;23.81;58.81;97519.06;4232121;28;5790;-65
2023/09/04 06:10:07;;;;;;;;;;;;;;;23.92;58.64;97520.75;4231969;28;5679;-65
2023/09/04 06:12:11;;;;;;;;;;;;;;;24.01;58.16;97516.50;4231716;28;5770;-65
2023/09/04 06:14:16;;;;;;;;;;;;;;;24.10;57.78;97519.50;4231744;28;5899;-65
2023/09/04 06:16:19;;;;;;;;;;;;;;;24.16;57.83;97520.34;4230364;28;5085;-65
2023/09/04 06:18:22;;;;;;;;;;;;;;;24.21;57.53;97529.28;4231222;28;5715;-65
2023/09/04 06:20:25;;;;;;;;;;;;;;;24.26;57.21;97534.72;4231777;28;5848;-65
2023/09/04 06:22:28;;;;;;;;;;;;;;;24.30;56.90;97535.00;4231716;28;5667;-65
2023/09/04 06:24:31;;;;;;;;;;;;;;;24.34;56.77;97539.63;4231689;28;5668;-65
2023/09/04 06:26:33;;;;;;;;;;;;;;;24.37;56.54;97531.03;4231702;28;5815;-65
2023/09/04 06:28:36;;;;;;;;;;;;;;;24.39;56.62;97534.28;4231494;28;5718;-65
2023/09/04 06:30:40;;;;;;;;;;;;;;;24.43;56.19;97537.25;4231579;28;5803;-65
2023/09/04 06:32:43;;;;;;;;;;;;;;;24.46;56.50;97542.13;4231582;28;5718;-65
2023/09/04 06:34:46;;;;;;;;;;;;;;;24.48;56.41;97545.41;4214810;28;6401;-65
2023/09/04 06:36:49;;;;;;;;;;;;;;;24.50;56.11;97547.84;4223723;28;5660;-65
2023/09/04 06:38:52;;;;;;;;;;;;;;;24.53;56.01;97552.72;4231593;28;5668;-65
2023/09/04 06:40:57;;;;;;;;;;;;;;;24.53;56.00;97550.00;4231405;28;5755;-65
2023/09/04 06:43:00;;;;;;;;;;;;;;;24.55;55.91;97547.84;4231691;28;5867;-65
2023/09/04 06:45:03;;;;;;;;;;;;;;;24.56;55.36;97549.47;4231524;28;5200;-65
2023/09/04 06:47:07;;;;;;;;;;;;;;;24.58;55.62;97547.34;4229637;28;5671;-66
2023/09/04 06:49:11;;;;;;;;;;;;;;;24.59;55.58;97549.78;4231121;28;5675;-66
2023/09/04 06:51:15;;;;;;;;;;;;;;;24.60;55.49;97542.47;4231202;28;5696;-65
2023/09/04 06:53:18;;;;;;;;;;;;;;;24.60;55.25;97545.97;4231120;28;5693;-65
2023/09/04 06:55:21;;;;;;;;;;;;;;;24.62;54.69;97548.41;4231035;28;5668;-65
2023/09/04 06:57:24;;;;;;;;;;;;;;;24.66;54.77;97546.81;4226935;28;5647;-65
2023/09/04 06:59:27;;;;;;;;;;;;;;;24.66;54.99;97544.09;4220160;28;5679;-65
2023/09/04 07:01:30;;;;;;;;;;;;;;;24.68;54.53;97542.75;4219822;28;5765;-66
2023/09/04 07:03:35;;;;;;;;;;;;;;;24.68;54.31;97541.94;4219501;28;5891;-65
2023/09/04 07:05:36;;;;;;;;;;;;;;;24.68;54.46;97544.66;4219676;28;5681;-65
2023/09/04 07:07:40;;;;;;;;;;;;;;;24.69;54.46;97549.00;4219682;28;5688;-65
2023/09/04 07:09:43;;;;;;;;;;;;;;;24.71;54.60;97552.25;4219594;28;5663;-65
2023/09/04 07:11:46;;;;;;;;;;;;;;;24.71;54.35;97546.84;4219689;28;5680;-65
2023/09/04 07:13:49;;;;;;;;;;;;;;;24.75;54.25;97557.94;4219890;28;5663;-65
2023/09/04 07:15:52;;;;;;;;;;;;;;;24.76;53.88;97549.53;4219600;28;6393;-65
2023/09/04 07:17:55;;;;;;;;;;;;;;;24.77;53.93;97556.56;4219183;28;5746;-65
2023/09/04 07:19:59;;;;;;;;;;;;;;;24.80;53.72;97550.63;4219834;28;5670;-65
2023/09/04 07:22:02;;;;;;;;;;;;;;;24.81;53.93;97557.69;4219708;28;5671;-65
2023/09/04 07:24:06;;;;;;;;;;;;;;;24.81;53.57;97552.28;4219426;28;5679;-65
2023/09/04 07:26:08;;;;;;;;;;;;;;;24.82;53.56;97556.59;4219466;28;5659;-65
2023/09/04 07:28:12;;;;;;;;;;;;;;;24.84;53.72;97562.56;4219548;28;5668;-65
2023/09/04 07:30:15;;;;;;;;;;;;;;;24.84;53.42;97559.03;4219474;28;5738;-65
2023/09/04 07:32:18;;;;;;;;;;;;;;;24.84;53.21;97565.25;4219195;28;5822;-65
2023/09/04 07:34:21;;;;;;;;;;;;;;;24.87;53.27;97567.44;4219137;28;5660;-65
2023/09/04 07:36:25;;;;;;;;;;;;;;;24.88;53.44;97573.66;4219503;28;5810;-65
2023/09/04 07:38:28;;;;;;;;;;;;;;;24.88;53.29;97569.06;4219498;28;5661;-65
2023/09/04 07:40:33;;;;;;;;;;;;;;;24.86;53.43;97563.09;4219077;28;5688;-66
2023/09/04 07:42:37;;;;;;;;;;;;;;;24.88;53.29;97569.06;4219044;28;5699;-66
2023/09/04 07:44:40;;;;;;;;;;;;;;;24.90;53.27;97563.38;4217886;28;5884;-66
2023/09/04 07:46:43;;;;;;;;;;;;;;;24.90;53.26;97564.19;4219002;28;5664;-65
2023/09/04 07:48:46;;;;;;;;;;;;;;;24.90;52.85;97564.19;4218760;28;6357;-65
2023/09/04 07:50:49;;;;;;;;;;;;;;;24.92;52.87;97564.75;4219161;28;6221;-65
2023/09/04 07:52:56;;;;;;;;;;;;;;;24.92;53.08;97562.03;4218820;28;6456;-67
2023/09/04 07:54:59;;;;;;;;;;;;;;;24.93;52.66;97565.56;4219203;28;5660;-66
2023/09/04 07:57:04;;;;;;;;;;;;;;;24.93;52.81;97562.88;4218333;28;5668;-66
2023/09/04 07:59:07;;;;;;;;;;;;;;;24.97;52.92;97566.66;4219187;28;5753;-66
2023/09/04 08:01:12;;;;;;;;;;;;;;;25.00;52.72;97568.00;4218959;28;5673;-66
2023/09/04 08:03:15;;;;;;;;;;;;;;;25.01;52.77;97573.16;4218740;28;5656;-66
2023/09/04 08:05:18;;;;;;;;;;;;;;;25.03;52.80;97572.91;4218745;28;5675;-66
2023/09/04 08:07:21;;;;;;;;;;;;;;;25.05;52.78;97573.47;4218858;28;5808;-67
2023/09/04 08:09:25;;;;;;;;;;;;;;;25.06;52.75;97575.91;4217803;28;5766;-66
2023/09/04 08:11:27;;;;;;;;;;;;;;;25.08;52.54;97568.31;4218760;28;5684;-66
2023/09/04 08:13:30;;;;;;;;;;;;;;;25.09;52.42;97571.84;4218447;28;5695;-67
2023/09/04 08:15:33;;;;;;;;;;;;;;;25.10;52.82;97576.16;4218524;28;5782;-66
2023/09/04 08:17:36;;;;;;;;;;;;;;;25.10;52.83;97566.16;4218503;28;5688;-66
2023/09/04 08:19:39;;;;;;;;;;;;;;;25.12;52.66;97569.41;4218886;28;5671;-65
2023/09/04 08:21:42;;;;;;;;;;;;;;;25.13;52.45;97564.81;4218769;28;5651;-66
2023/09/04 08:23:45;;;;;;;;;;;;;;;25.14;52.83;97564.56;4218594;28;5671;-68
2023/09/04 08:25:58;;;;;;;;;;;;;;;25.11;52.81;97567.78;4218483;28;5665;-67
2023/09/04 08:28:00;;;;;;;;;;;;;;;25.11;52.97;97569.69;4218635;28;5680;-66
2023/09/04 08:30:05;;;;;;;;;;;;;;;25.11;52.94;97564.28;4218357;28;5906;-66
2023/09/04 08:32:07;;;;;;;;;;;;;;;25.11;52.85;97566.97;4218797;28;5691;-66
2023/09/04 08:34:10;;;;;;;;;;;;;;;25.08;52.92;97567.50;4218658;28;5676;-66
2023/09/04 08:36:14;;;;;;;;;;;;;;;25.07;52.93;97561.28;4218301;28;5668;-66
2023/09/04 08:38:18;;;;;;;;;;;;;;;25.11;52.74;97564.28;4218316;28;5788;-66
2023/09/04 08:40:21;;;;;;;;;;;;;;;25.12;52.52;97566.69;4218382;28;5652;-66
2023/09/04 08:42:27;;;;;;;;;;;;;;;25.12;53.00;97576.72;4218110;28;5684;-66
2023/09/04 08:44:31;;;;;;;;;;;;;;;25.13;52.63;97579.16;4218243;28;5660;-66
2023/09/04 08:46:36;;;;;;;;;;;;;;;25.14;53.02;97578.09;4218099;28;5700;-66
2023/09/04 08:48:40;;;;;;;;;;;;;;;25.15;52.79;97584.31;4218064;28;5874;-65
2023/09/04 08:50:43;;;;;;;;;;;;;;;25.16;52.60;97585.94;4218314;28;5669;-65
2023/09/04 08:52:46;;;;;;;;;;;;;;;25.17;52.80;97592.97;4218139;28;5672;-65
2023/09/04 08:54:51;;;;;;;;;;;;;;;25.17;52.62;97582.16;4218143;28;5792;-64
2023/09/04 08:56:53;;;;;;;;;;;;;;;25.19;52.53;97574.56;4217737;28;5660;-65
2023/09/04 08:58:58;;;;;;;;;;;;;;;25.21;53.00;97577.81;4218029;28;5668;-65
2023/09/04 09:01:00;;;;;;;;;;;;;;;25.22;52.48;97572.13;4217875;28;5826;-66
2023/09/04 09:03:06;;;;;;;;;;;;;;;25.24;52.67;97571.88;4217746;28;5685;-66
2023/09/04 09:05:10;;;;;;;;;;;;;;;25.25;52.49;97573.47;4218384;28;5699;-66
2023/09/04 09:07:14;;;;;;;;;;;;;;;25.25;52.52;97570.78;4217997;28;5771;-64
2023/09/04 09:09:20;;;;;;;;;;;;;;;25.27;52.64;97570.53;4218012;28;5688;-65
2023/09/04 09:11:23;;;;;;;;;;;;;;;25.28;52.60;97570.25;4218238;28;5671;-65
2023/09/04 09:13:26;;;;;;;;;;;;;;;25.29;52.34;97566.47;4217819;28;6564;-64
2023/09/04 09:15:32;;;;;;;;;;;;;;;25.30;52.53;97570.81;4218166;28;5766;-65
2023/09/04 09:17:35;;;;;;;;;;;;;;;25.30;52.74;97570.00;4217319;28;5697;-65
2023/09/04 09:19:39;;;;;;;;;;;;;;;25.31;52.37;97567.00;4218222;28;5676;-65
2023/09/04 09:21:43;;;;;;;;;;;;;;;25.34;52.49;97568.34;4218440;28;5683;-64
2023/09/04 09:23:45;;;;;;;;;;;;;;;25.34;52.18;97568.34;4217591;28;5722;-65
2023/09/04 09:25:55;;;;;;;;;;;;;;;25.32;52.19;97568.63;4217663;28;5700;-65
2023/09/04 09:28:00;;;;;;;;;;;;;;;25.30;52.04;97570.81;4217555;28;5668;-66
2023/09/04 09:30:04;;;;;;;;;;;;;;;25.29;52.29;97562.97;4217626;28;5756;-66
2023/09/04 09:32:09;;;;;;;;;;;;;;;25.27;52.19;97565.94;4217454;28;5668;-66
2023/09/04 09:34:13;;;;;;;;;;;;;;;25.27;52.22;97562.41;4217851;28;5372;-66
2023/09/04 09:36:16;;;;;;;;;;;;;;;25.25;52.32;97562.66;4217832;28;5724;-66
2023/09/04 09:38:19;;;;;;;;;;;;;;;25.25;52.32;97562.66;4217464;28;5672;-66
2023/09/04 09:40:22;;;;;;;;;;;;;;;25.25;52.17;97566.19;4217461;28;5088;-66
2023/09/04 09:42:26;;;;;;;;;;;;;;;25.27;52.36;97554.31;4217580;28;5671;-66
2023/09/04 09:44:32;;;;;;;;;;;;;;;25.29;52.52;97552.13;4217749;28;5672;-66
2023/09/04 09:46:37;;;;;;;;;;;;;;;25.29;52.30;97552.13;4217624;28;5696;-66
2023/09/04 09:48:42;;;;;;;;;;;;;;;25.32;52.63;97549.69;4217290;28;5696;-66
2023/09/04 09:50:46;;;;;;;;;;;;;;;25.36;52.25;97547.25;4217736;28;5672;-66
2023/09/04 09:52:57;;;;;;;;;;;;;;;25.33;52.08;97543.19;4217883;28;5712;-66
2023/09/04 09:55:00;;;;;;;;;;;;;;;25.32;52.47;97543.47;4217644;28;5781;-66
2023/09/04 09:57:03;;;;;;;;;;;;;;;25.34;52.57;97542.09;4217464;28;5077;-66
2023/09/04 09:59:06;;;;;;;;;;;;;;;25.35;52.15;97537.50;4217439;28;5669;-66
2023/09/04 10:01:09;;;;;;;;;;;;;;;25.36;52.37;97534.53;4217520;28;7102;-66
2023/09/04 10:03:13;;;;;;;;;;;;;;;25.38;52.33;97534.28;4217431;28;6341;-65
2023/09/04 10:05:20;;;;;;;;;;;;;;;25.39;52.32;97528.59;4217583;28;5819;-65
2023/09/04 10:07:27;;;;;;;;;;;;;;;25.40;52.12;97527.50;4217832;28;5676;-65
2023/09/04 10:09:38;;;;;;;;;;;;;;;25.40;52.09;97515.88;4217615;28;5660;-65
2023/09/04 10:11:44;;;;;;;;;;;;;;;25.41;52.14;97523.72;4217662;28;5676;-65
2023/09/04 10:14:00;;;;;;;;;;;;;;;25.43;52.34;97510.72;4217629;28;5716;-65
2023/09/04 10:16:08;;;;;;;;;;;;;;;25.45;52.01;97510.44;4217552;28;5668;-65
2023/09/04 10:18:15;;;;;;;;;;;;;;;25.45;51.94;97507.75;4217104;28;5667;-65
2023/09/04 10:20:22;;;;;;;;;;;;;;;25.45;52.07;97503.13;4217470;28;5676;-65
2023/09/04 10:22:28;;;;;;;;;;;;;;;25.46;51.96;97504.75;4217401;28;5672;-65
2023/09/04 10:24:41;;;;;;;;;;;;;;;25.46;51.90;97504.75;4217585;28;5672;-65
2023/09/04 10:26:51;;;;;;;;;;;;;;;25.48;51.98;97494.50;4217449;28;5740;-65
2023/09/04 10:29:03;;;;;;;;;;;;;;;25.49;52.00;97487.19;4217617;28;6369;-65
2023/09/04 10:31:06;;;;;;;;;;;;;;;25.51;51.90;97483.13;4217488;28;5750;-65
2023/09/04 10:33:14;;;;;;;;;;;;;;;25.52;52.19;97482.03;4218824;28;6366;-65
2023/09/04 10:35:18;;;;;;;;;;;;;;;25.54;52.13;97470.94;4220728;28;6505;-65
2023/09/04 10:37:22;;;;;;;;;;;;;;;25.52;51.83;97479.31;4220647;28;5665;-65
2023/09/04 10:39:25;;;;;;;;;;;;;;;25.51;51.99;97475.00;4220933;28;5671;-65
2023/09/04 10:41:30;;;;;;;;;;;;;;;25.52;51.71;97471.19;4220566;28;5675;-64
2023/09/04 10:43:38;;;;;;;;;;;;;;;25.50;51.49;97470.66;4220675;28;6375;-66
2023/09/04 10:45:41;;;;;;;;;;;;;;;25.52;51.75;97460.38;4220274;28;5786;-65
2023/09/04 10:47:46;;;;;;;;;;;;;;;25.52;51.26;97459.56;4219667;28;5659;-65
2023/09/04 10:49:49;;;;;;;;;;;;;;;25.53;51.18;97455.78;4220377;28;5780;-65
2023/09/04 10:51:53;;;;;;;;;;;;;;;25.53;51.33;97451.16;4220015;28;5680;-65
2023/09/04 10:53:57;;;;;;;;;;;;;;;25.51;51.20;97452.53;4220305;28;6389;-64
2023/09/04 10:56:11;;;;;;;;;;;;;;;25.49;51.14;97452.00;4220164;28;5690;-65
2023/09/04 10:58:14;;;;;;;;;;;;;;;25.48;50.92;97448.47;4220090;28;5675;-65
2023/09/04 11:00:27;;;;;;;;;;;;;;;25.52;51.41;97451.44;4219913;28;5744;-65
2023/09/04 11:02:32;;;;;;;;;;;;;;;25.52;51.32;97448.72;4220068;28;5694;-65
2023/09/04 11:04:45;;;;;;;;;;;;;;;25.53;51.29;97451.16;4219881;28;5667;-65
2023/09/04 11:07:26;;;;;;;;;;;;;;;25.54;50.83;97447.38;4203046;28;5779;-65
2023/09/04 11:09:32;;;;;;;;;;;;;;;25.55;50.84;97445.47;4217988;28;5664;-65
2023/09/04 11:11:35;;;;;;;;;;;;;;;25.54;50.70;97446.56;4219816;28;5676;-64
2023/09/04 11:13:39;;;;;;;;;;;;;;;25.54;50.86;97441.16;4219713;28;5672;-65
2023/09/04 11:15:42;;;;;;;;;;;;;;;25.54;50.36;97450.06;4219487;28;5077;-65
2023/09/04 11:17:49;;;;;;;;;;;;;;;25.55;50.91;97446.28;4219415;28;5672;-65
2023/09/04 11:19:53;;;;;;;;;;;;;;;25.58;50.50;97446.81;4219589;28;5687;-65
2023/09/04 11:21:58;;;;;;;;;;;;;;;25.59;50.63;97453.84;4219678;28;5695;-66
2023/09/04 11:24:02;;;;;;;;;;;;;;;25.62;50.60;97445.19;4219480;28;5680;-65
2023/09/04 11:26:05;;;;;;;;;;;;;;;25.62;50.82;97442.50;4219606;28;5671;-66
2023/09/04 11:28:08;;;;;;;;;;;;;;;25.61;50.90;97443.59;4219741;28;5731;-69
2023/09/04 11:30:11;;;;;;;;;;;;;;;25.60;50.88;97447.38;4219448;28;5687;-73
2023/09/04 11:32:14;;;;;;;;;;;;;;;25.59;50.92;97449.25;4219290;28;5679;-68
2023/09/04 11:34:21;;;;;;;;;;;;;;;25.63;51.03;97449.53;4219578;28;5757;-66
2023/09/04 11:36:25;;;;;;;;;;;;;;;25.62;50.65;97442.50;4219539;28;5762;-66
2023/09/04 11:38:29;;;;;;;;;;;;;;;25.64;50.80;97438.44;4219205;28;5736;-66
2023/09/04 11:40:34;;;;;;;;;;;;;;;25.65;51.07;97441.94;4219013;28;5790;-66
2023/09/04 11:42:37;;;;;;;;;;;;;;;25.67;51.05;97451.41;4217226;28;5668;-67
2023/09/04 11:44:39;;;;;;;;;;;;;;;25.68;51.10;97436.78;4216556;28;5912;-66
2023/09/04 11:46:43;;;;;;;;;;;;;;;25.71;51.06;97440.84;4207681;28;5099;-66
2023/09/04 11:48:47;;;;;;;;;;;;;;;25.73;50.87;97438.72;4214816;28;5659;-66
2023/09/04 11:50:50;;;;;;;;;;;;;;;25.75;50.78;97445.47;4219296;28;5751;-66
2023/09/04 11:52:53;;;;;;;;;;;;;;;25.78;51.14;97435.97;4217621;28;5866;-66
2023/09/04 11:55:00;;;;;;;;;;;;;;;25.80;50.90;97434.63;4219079;28;5750;-65
2023/09/04 11:57:05;;;;;;;;;;;;;;;25.81;50.87;97433.53;4217224;28;5831;-66
2023/09/04 11:59:08;;;;;;;;;;;;;;;25.83;51.02;97430.56;4210285;28;6362;-66
2023/09/04 12:01:11;;;;;;;;;;;;;;;25.85;50.91;97422.16;4212645;28;5667;-66
2023/09/04 12:03:14;;;;;;;;;;;;;;;25.85;50.84;97425.69;4217633;28;5663;-64
2023/09/04 12:05:18;;;;;;;;;;;;;;;25.85;50.56;97414.84;4213179;28;5695;-64
2023/09/04 12:07:21;;;;;;;;;;;;;;;25.84;50.57;97415.94;4210862;28;5697;-64
2023/09/04 12:09:23;;;;;;;;;;;;;;;25.85;50.81;97412.13;4200511;28;5756;-65
2023/09/04 12:11:27;;;;;;;;;;;;;;;25.87;50.71;97411.84;4208641;28;6250;-65
2023/09/04 12:13:31;;;;;;;;;;;;;;;25.88;50.38;97397.22;4212777;28;5751;-65
2023/09/04 12:15:34;;;;;;;;;;;;;;;25.87;50.21;97399.13;4215569;28;5672;-65
2023/09/04 12:17:37;;;;;;;;;;;;;;;25.88;50.20;97398.03;4217517;28;5667;-65
2023/09/04 12:19:42;;;;;;;;;;;;;;;25.89;50.39;97396.94;4214206;28;5934;-65
2023/09/04 12:21:45;;;;;;;;;;;;;;;25.89;50.38;97383.41;4216651;28;5862;-65
2023/09/04 12:23:48;;;;;;;;;;;;;;;25.91;50.07;97385.81;4208217;28;5720;-65
2023/09/04 12:25:52;;;;;;;;;;;;;;;25.90;50.03;97385.03;4216984;28;5791;-65
2023/09/04 12:27:55;;;;;;;;;;;;;;;25.92;50.28;97388.25;4213832;28;5832;-65
2023/09/04 12:29:58;;;;;;;;;;;;;;;25.93;49.99;97381.75;4217285;28;5668;-65
2023/09/04 12:32:03;;;;;;;;;;;;;;;25.95;50.07;97386.91;4216269;28;6503;-65
2023/09/04 12:34:06;;;;;;;;;;;;;;;25.96;49.81;97383.91;4204414;28;5891;-66
2023/09/04 12:36:13;;;;;;;;;;;;;;;25.97;49.80;97372.00;4204617;28;5664;-65
2023/09/04 12:38:16;;;;;;;;;;;;;;;25.98;49.90;97376.31;4212001;28;6591;-65
2023/09/04 12:40:21;;;;;;;;;;;;;;;25.98;49.51;97368.19;4208916;28;5696;-65
2023/09/04 12:42:23;;;;;;;;;;;;;;;26.01;49.56;97364.94;4205907;28;6328;-65
2023/09/04 12:44:26;;;;;;;;;;;;;;;26.02;49.72;97369.25;4212813;28;5823;-65
2023/09/04 12:46:31;;;;;;;;;;;;;;;26.03;49.47;97360.03;4214937;28;5677;-65
2023/09/04 12:48:35;;;;;;;;;;;;;;;26.05;49.68;97365.19;4210937;28;5668;-65
2023/09/04 12:50:38;;;;;;;;;;;;;;;26.06;49.70;97359.50;4213060;28;5780;-65
2023/09/04 12:52:46;;;;;;;;;;;;;;;26.06;49.76;97362.22;4217011;28;5915;-65
2023/09/04 12:54:49;;;;;;;;;;;;;;;26.08;49.41;97360.03;4206804;28;5689;-65
2023/09/04 12:56:52;;;;;;;;;;;;;;;26.10;49.52;97351.63;4216348;28;6575;-65
2023/09/04 12:58:55;;;;;;;;;;;;;;;26.11;49.20;97343.19;4213376;28;5671;-65
2023/09/04 13:00:58;;;;;;;;;;;;;;;26.12;49.37;97338.59;4217055;28;5667;-65
2023/09/04 13:03:02;;;;;;;;;;;;;;;26.15;49.20;97342.63;4214832;28;5679;-66
2023/09/04 13:05:06;;;;;;;;;;;;;;;26.15;49.32;97337.22;4212248;28;5780;-66
2023/09/04 13:07:09;;;;;;;;;;;;;;;26.17;49.38;97340.47;4216309;28;7667;-66
2023/09/04 13:09:12;;;;;;;;;;;;;;;26.16;49.02;97336.13;4214006;28;5672;-66
2023/09/04 13:11:15;;;;;;;;;;;;;;;26.18;49.10;97336.69;4211685;28;5647;-66
2023/09/04 13:13:18;;;;;;;;;;;;;;;26.20;49.13;97334.50;4214280;28;5770;-65
2023/09/04 13:15:21;;;;;;;;;;;;;;;26.19;49.09;97330.16;4202211;28;5692;-66
2023/09/04 13:17:24;;;;;;;;;;;;;;;26.20;49.04;97326.38;4210616;28;5663;-66
2023/09/04 13:19:29;;;;;;;;;;;;;;;26.20;48.97;97320.94;4214525;28;5671;-65
2023/09/04 13:21:32;;;;;;;;;;;;;;;26.22;48.86;97322.28;4216192;28;5773;-65
2023/09/04 13:23:36;;;;;;;;;;;;;;;26.23;48.92;97321.19;4215988;28;5781;-65
2023/09/04 13:25:39;;;;;;;;;;;;;;;26.24;48.64;97316.56;4216418;28;5814;-65
2023/09/04 13:27:42;;;;;;;;;;;;;;;26.24;48.72;97325.50;4216440;28;5762;-65
2023/09/04 13:29:45;;;;;;;;;;;;;;;26.25;48.90;97316.28;4216334;28;5785;-65
2023/09/04 13:31:48;;;;;;;;;;;;;;;26.27;48.89;97316.00;4216370;28;5073;-65
2023/09/04 13:33:51;;;;;;;;;;;;;;;26.28;48.88;97306.81;4213989;28;5802;-64
2023/09/04 13:35:56;;;;;;;;;;;;;;;26.31;48.62;97308.94;4216024;28;5818;-65
2023/09/04 13:37:59;;;;;;;;;;;;;;;26.32;48.88;97303.25;4212803;28;5774;-64
2023/09/04 13:40:03;;;;;;;;;;;;;;;26.32;48.86;97305.13;4214804;28;5778;-65
2023/09/04 13:42:06;;;;;;;;;;;;;;;26.32;48.99;97297.81;4207579;28;5800;-65
2023/09/04 13:44:10;;;;;;;;;;;;;;;26.35;48.92;97296.44;4216807;28;5679;-65
2023/09/04 13:46:13;;;;;;;;;;;;;;;26.36;49.11;97292.63;4213337;28;5676;-65
2023/09/04 13:48:16;;;;;;;;;;;;;;;26.36;49.05;97290.75;4207450;28;5777;-65
2023/09/04 13:50:19;;;;;;;;;;;;;;;26.38;49.04;97288.56;4212510;28;7692;-65
2023/09/04 13:52:23;;;;;;;;;;;;;;;26.38;48.98;97287.75;4207139;28;5903;-66
2023/09/04 13:54:26;;;;;;;;;;;;;;;26.41;49.07;97281.81;4210009;28;5863;-66
2023/09/04 13:56:29;;;;;;;;;;;;;;;26.43;49.06;97274.19;4209210;28;5653;-65
2023/09/04 13:58:32;;;;;;;;;;;;;;;26.44;49.09;97275.00;4207093;28;5827;-64
2023/09/04 14:00:35;;;;;;;;;;;;;;;26.44;49.22;97270.38;4206013;28;5834;-66
2023/09/04 14:02:38;;;;;;;;;;;;;;;26.44;49.16;97267.66;4214079;28;5850;-66
2023/09/04 14:04:40;;;;;;;;;;;;;;;26.45;49.26;97261.16;4211412;28;5113;-66
2023/09/04 14:06:43;;;;;;;;;;;;;;;26.49;49.40;97261.38;4222944;28;5650;-66
2023/09/04 14:08:48;;;;;;;;;;;;;;;26.50;49.29;97252.97;4219126;28;5140;-66
2023/09/04 14:10:51;;;;;;;;;;;;;;;26.51;49.45;97251.09;4220435;28;5683;-66
2023/09/04 14:12:54;;;;;;;;;;;;;;;26.53;49.37;97252.41;4220184;28;5796;-66
2023/09/04 14:14:57;;;;;;;;;;;;;;;26.55;49.38;97241.28;4216647;28;5758;-65
2023/09/04 14:17:00;;;;;;;;;;;;;;;26.57;49.42;97248.03;4219353;28;5670;-65
2023/09/04 14:19:03;;;;;;;;;;;;;;;26.57;49.36;97248.03;4217765;28;5739;-65
2023/09/04 14:21:07;;;;;;;;;;;;;;;26.57;49.40;97247.22;4219166;28;5676;-65
2023/09/04 14:23:10;;;;;;;;;;;;;;;26.59;49.29;97251.25;4220483;28;5668;-64
2023/09/04 14:25:14;;;;;;;;;;;;;;;26.62;49.57;97237.16;4220658;28;5771;-65
2023/09/04 14:27:17;;;;;;;;;;;;;;;26.63;49.50;97236.06;4216756;28;5663;-66
2023/09/04 14:29:20;;;;;;;;;;;;;;;26.65;49.70;97230.34;4220282;28;5807;-65
2023/09/04 14:31:23;;;;;;;;;;;;;;;26.64;49.34;97234.97;4216405;28;6369;-65
2023/09/04 14:33:26;;;;;;;;;;;;;;;26.64;49.57;97232.25;4211869;28;5684;-65
2023/09/04 14:35:31;;;;;;;;;;;;;;;26.66;49.52;97230.06;4218196;28;5763;-66
2023/09/04 14:37:34;;;;;;;;;;;;;;;26.68;49.42;97230.56;4216190;28;5896;-66
2023/09/04 14:39:36;;;;;;;;;;;;;;;26.69;49.48;97234.91;4210486;28;5696;-66
2023/09/04 14:41:56;;;;;;;;;;;;;;;26.69;49.58;97229.47;4210508;28;5091;-66
2023/09/04 14:43:58;;;;;;;;;;;;;;;26.69;49.39;97229.47;4215172;28;5841;-66
2023/09/04 14:46:07;;;;;;;;;;;;;;;26.70;49.45;97231.09;4214137;28;5784;-66
2023/09/04 14:48:12;;;;;;;;;;;;;;;26.69;49.38;97226.78;4217513;28;5762;-65
2023/09/04 14:50:15;;;;;;;;;;;;;;;26.69;49.55;97229.47;4215789;28;5815;-66
2023/09/04 14:52:19;;;;;;;;;;;;;;;26.69;49.50;97224.06;4216974;28;5680;-66
2023/09/04 14:54:22;;;;;;;;;;;;;;;26.72;49.29;97225.38;4217032;28;5688;-66
2023/09/04 14:56:26;;;;;;;;;;;;;;;26.73;49.31;97215.34;4218326;28;5809;-66
2023/09/04 14:58:30;;;;;;;;;;;;;;;26.73;49.57;97212.63;4218272;28;5097;-66
2023/09/04 15:00:33;;;;;;;;;;;;;;;26.73;49.51;97215.34;4217290;28;5695;-67
2023/09/04 15:02:35;;;;;;;;;;;;;;;26.71;49.40;97202.06;4211326;28;5858;-65
2023/09/04 15:04:39;;;;;;;;;;;;;;;26.73;49.64;97199.91;4213738;28;5689;-66
2023/09/04 15:06:44;;;;;;;;;;;;;;;26.75;49.64;97202.31;4207115;28;6362;-65
2023/09/04 15:08:47;;;;;;;;;;;;;;;26.76;49.63;97193.09;4209517;28;5659;-66
2023/09/04 15:10:50;;;;;;;;;;;;;;;26.77;49.62;97197.41;4213324;28;6425;-66
2023/09/04 15:12:53;;;;;;;;;;;;;;;26.80;49.42;97191.41;4204029;28;5909;-66
2023/09/04 15:14:57;;;;;;;;;;;;;;;26.81;49.53;97193.84;4209965;28;5824;-66
2023/09/04 15:17:00;;;;;;;;;;;;;;;26.81;49.47;97190.31;4205836;28;5963;-66
2023/09/04 15:19:03;;;;;;;;;;;;;;;26.81;49.70;97193.03;4209942;28;5117;-66
2023/09/04 15:21:07;;;;;;;;;;;;;;;26.80;49.48;97188.69;4205689;28;5839;-66
2023/09/04 15:23:10;;;;;;;;;;;;;;;26.80;49.63;97192.22;4209329;28;6645;-63
2023/09/04 15:25:13;;;;;;;;;;;;;;;26.81;49.75;97187.59;4207103;28;5754;-65
2023/09/04 15:27:17;;;;;;;;;;;;;;;26.81;49.59;97184.88;4206597;28;5236;-65
2023/09/04 15:29:20;;;;;;;;;;;;;;;26.81;49.54;97188.41;4209645;28;5133;-65
2023/09/04 15:31:24;;;;;;;;;;;;;;;26.82;49.68;97183.78;4208423;28;5873;-66
2023/09/04 15:33:28;;;;;;;;;;;;;;;26.82;49.62;97184.59;4212873;28;5783;-66
2023/09/04 15:35:30;;;;;;;;;;;;;;;26.81;49.73;97182.19;4217162;28;5751;-66
2023/09/04 15:37:33;;;;;;;;;;;;;;;26.81;49.90;97182.97;4217097;28;5675;-66
2023/09/04 15:39:36;;;;;;;;;;;;;;;26.81;49.46;97176.75;4209291;28;5787;-66
2023/09/04 15:41:39;;;;;;;;;;;;;;;26.81;49.67;97182.19;4205668;28;5733;-66
2023/09/04 15:43:42;;;;;;;;;;;;;;;26.81;49.80;97172.13;4203219;28;5677;-66
2023/09/04 15:45:44;;;;;;;;;;;;;;;26.82;49.62;97175.66;4207870;28;5903;-66
2023/09/04 15:47:49;;;;;;;;;;;;;;;26.82;49.82;97179.19;4212098;28;5892;-64
2023/09/04 15:49:53;;;;;;;;;;;;;;;26.83;49.75;97174.56;4206186;28;5742;-65
2023/09/04 15:51:56;;;;;;;;;;;;;;;26.83;49.86;97172.66;4209470;28;5671;-65
2023/09/04 15:54:02;;;;;;;;;;;;;;;26.84;49.82;97166.16;4209271;28;5850;-66
2023/09/04 15:56:05;;;;;;;;;;;;;;;26.85;49.86;97170.47;4209333;28;6791;-66
2023/09/04 15:58:08;;;;;;;;;;;;;;;26.85;49.66;97164.25;4212194;28;5768;-66
2023/09/04 16:00:12;;;;;;;;;;;;;;;26.84;50.10;97160.72;4206180;28;5759;-66
2023/09/04 16:02:15;;;;;;;;;;;;;;;26.85;50.06;97167.78;4204723;28;5898;-66
2023/09/04 16:04:19;;;;;;;;;;;;;;;26.85;49.99;97165.06;4215428;28;5747;-66
2023/09/04 16:06:22;;;;;;;;;;;;;;;26.86;50.25;97163.97;4205861;28;5897;-66
2023/09/04 16:08:25;;;;;;;;;;;;;;;26.88;50.26;97160.94;4210788;28;5826;-65
2023/09/04 16:10:28;;;;;;;;;;;;;;;26.87;50.24;97165.56;4214898;28;5671;-66
2023/09/04 16:12:31;;;;;;;;;;;;;;;26.88;50.63;97159.03;4208825;28;5410;-64
2023/09/04 16:14:34;;;;;;;;;;;;;;;26.87;50.60;97156.63;4213442;28;5866;-65
2023/09/04 16:16:37;;;;;;;;;;;;;;;26.86;50.60;97155.00;4215324;28;5704;-65
2023/09/04 16:18:40;;;;;;;;;;;;;;;26.85;50.93;97154.22;4212737;28;5795;-65
2023/09/04 16:20:45;;;;;;;;;;;;;;;26.87;50.85;97143.06;4213048;28;5675;-66
2023/09/04 16:22:47;;;;;;;;;;;;;;;26.86;50.88;97152.31;4211202;28;5771;-64
2023/09/04 16:24:50;;;;;;;;;;;;;;;26.86;50.92;97144.97;4216514;28;5835;-65
2023/09/04 16:26:53;;;;;;;;;;;;;;;26.87;51.18;97141.16;4214102;28;5679;-66
2023/09/04 16:28:56;;;;;;;;;;;;;;;26.87;51.16;97140.34;4215890;28;7735;-65
2023/09/04 16:30:59;;;;;;;;;;;;;;;26.86;51.22;97138.75;4215676;28;5755;-66
2023/09/04 16:33:02;;;;;;;;;;;;;;;26.86;51.29;97138.75;4216193;28;5671;-66
2023/09/04 16:35:05;;;;;;;;;;;;;;;26.85;51.26;97137.13;4216653;28;5934;-66
2023/09/04 16:37:10;;;;;;;;;;;;;;;26.85;51.58;97139.84;4216541;28;5747;-65
2023/09/04 16:39:13;;;;;;;;;;;;;;;26.85;51.60;97134.41;4216559;28;5671;-66
2023/09/04 16:41:17;;;;;;;;;;;;;;;26.85;51.53;97140.66;4216474;28;5803;-65
2023/09/04 16:43:20;;;;;;;;;;;;;;;26.85;51.79;97131.69;4216309;28;5664;-66
2023/09/04 16:45:23;;;;;;;;;;;;;;;26.84;51.85;97136.31;4216689;28;5758;-66
2023/09/04 16:47:26;;;;;;;;;;;;;;;26.85;51.94;97134.41;4216117;28;7346;-65
2023/09/04 16:49:28;;;;;;;;;;;;;;;26.84;51.99;97138.19;4210919;28;5743;-65
2023/09/04 16:51:32;;;;;;;;;;;;;;;26.84;52.05;97139.03;4216316;28;5671;-65